sensor_id;sensor_type;location;lat;lon;timestamp;temperature;humidity
12013;DHT22;6065;48.138;16.402;2023-08-20T00:01:15;24.80;99.90
12013;DHT22;6065;48.138;16.402;2023-08-20T00:03:43;24.80;99.90
12013;DHT22;6065;48.138;16.402;2023-08-20T00:06:11;24.80;99.90
12013;DHT22;6065;48.138;16.402;2023-08-20T00:08:38;24.80;99.90
12013;DHT22;6065;48.138;16.402;2023-08-20T00:11:05;24.70;99.90
12013;DHT22;6065;48.138;16.402;2023-08-20T00:13:32;24.70;99.90
12013;DHT22;6065;48.138;16.402;2023-08-20T00:16:00;24.70;99.90
12013;DHT22;6065;48.138;16.402;2023-08-20T00:18:27;24.60;99.90
12013;DHT22;6065;48.138;16.402;2023-08-20T00:20:54;24.60;99.90
12013;DHT22;6065;48.138;16.402;2023-08-20T00:23:21;24.60;99.90
12013;DHT22;6065;48.138;16.402;2023-08-20T00:25:48;24.50;99.90
12013;DHT22;6065;48.138;16.402;2023-08-20T00:28:15;24.50;99.90
12013;DHT22;6065;48.138;16.402;2023-08-20T00:30:41;24.50;99.90
12013;DHT22;6065;48.138;16.402;2023-08-20T00:33:09;24.50;99.90
12013;DHT22;6065;48.138;16.402;2023-08-20T00:35:37;24.40;99.90
12013;DHT22;6065;48.138;16.402;2023-08-20T00:38:03;24.40;99.90
12013;DHT22;6065;48.138;16.402;2023-08-20T00:40:30;24.40;99.90
12013;DHT22;6065;48.138;16.402;2023-08-20T00:42:57;24.30;99.90
12013;DHT22;6065;48.138;16.402;2023-08-20T00:45:23;24.30;99.90
12013;DHT22;6065;48.138;16.402;2023-08-20T00:47:50;24.30;99.90
12013;DHT22;6065;48.138;16.402;2023-08-20T00:50:19;24.30;99.90
12013;DHT22;6065;48.138;16.402;2023-08-20T00:52:46;24.30;99.90
12013;DHT22;6065;48.138;16.402;2023-08-20T00:55:13;24.30;99.90
12013;DHT22;6065;48.138;16.402;2023-08-20T00:57:40;24.20;99.90
12013;DHT22;6065;48.138;16.402;2023-08-20T01:00:07;24.20;99.90
12013;DHT22;6065;48.138;16.402;2023-08-20T01:02:36;24.10;99.90
12013;DHT22;6065;48.138;16.402;2023-08-20T01:05:03;24.10;99.90
12013;DHT22;6065;48.138;16.402;2023-08-20T01:07:34;24.10;99.90
12013;DHT22;6065;48.138;16.402;2023-08-20T01:10:06;24.10;99.90
12013;DHT22;6065;48.138;16.402;2023-08-20T01:12:34;24.10;99.90
12013;DHT22;6065;48.138;16.402;2023-08-20T01:15:02;24.10;99.90
12013;DHT22;6065;48.138;16.402;2023-08-20T01:17:29;24.00;99.90
12013;DHT22;6065;48.138;16.402;2023-08-20T01:19:56;23.90;99.90
12013;DHT22;6065;48.138;16.402;2023-08-20T01:25:28;23.90;99.90
12013;DHT22;6065;48.138;16.402;2023-08-20T01:27:58;23.90;99.90
12013;DHT22;6065;48.138;16.402;2023-08-20T01:30:30;23.90;99.90
12013;DHT22;6065;48.138;16.402;2023-08-20T01:32:57;23.90;99.90
12013;DHT22;6065;48.138;16.402;2023-08-20T01:35:25;23.90;99.90
12013;DHT22;6065;48.138;16.402;2023-08-20T01:37:52;23.90;99.90
12013;DHT22;6065;48.138;16.402;2023-08-20T01:40:18;23.80;99.90
12013;DHT22;6065;48.138;16.402;2023-08-20T01:42:45;23.80;99.90
12013;DHT22;6065;48.138;16.402;2023-08-20T01:45:12;23.80;99.90
12013;DHT22;6065;48.138;16.402;2023-08-20T01:47:40;23.70;99.90
12013;DHT22;6065;48.138;16.402;2023-08-20T01:50:07;23.70;99.90
12013;DHT22;6065;48.138;16.402;2023-08-20T01:52:34;23.70;99.90
12013;DHT22;6065;48.138;16.402;2023-08-20T01:55:00;23.60;99.90
12013;DHT22;6065;48.138;16.402;2023-08-20T01:57:27;23.60;99.90
12013;DHT22;6065;48.138;16.402;2023-08-20T01:59:54;23.60;99.90
12013;DHT22;6065;48.138;16.402;2023-08-20T02:02:21;23.50;99.90
12013;DHT22;6065;48.138;16.402;2023-08-20T02:04:49;23.50;99.90
12013;DHT22;6065;48.138;16.402;2023-08-20T02:07:16;23.50;99.90
12013;DHT22;6065;48.138;16.402;2023-08-20T02:09:42;23.60;99.90
12013;DHT22;6065;48.138;16.402;2023-08-20T02:12:09;23.50;99.90
12013;DHT22;6065;48.138;16.402;2023-08-20T02:14:36;23.50;99.90
12013;DHT22;6065;48.138;16.402;2023-08-20T02:17:03;23.50;99.90
12013;DHT22;6065;48.138;16.402;2023-08-20T02:19:30;23.60;99.90
12013;DHT22;6065;48.138;16.402;2023-08-20T02:21:58;23.50;99.90
12013;DHT22;6065;48.138;16.402;2023-08-20T02:24:25;23.50;99.90
12013;DHT22;6065;48.138;16.402;2023-08-20T02:26:51;23.50;99.90
12013;DHT22;6065;48.138;16.402;2023-08-20T02:29:18;23.50;99.90
12013;DHT22;6065;48.138;16.402;2023-08-20T02:31:45;23.40;99.90
12013;DHT22;6065;48.138;16.402;2023-08-20T02:34:11;23.40;99.90
12013;DHT22;6065;48.138;16.402;2023-08-20T02:36:38;23.40;99.90
12013;DHT22;6065;48.138;16.402;2023-08-20T02:39:06;23.40;99.90
12013;DHT22;6065;48.138;16.402;2023-08-20T02:41:33;23.30;99.90
12013;DHT22;6065;48.138;16.402;2023-08-20T02:44:00;23.30;99.90
12013;DHT22;6065;48.138;16.402;2023-08-20T02:46:27;23.30;99.90
12013;DHT22;6065;48.138;16.402;2023-08-20T02:48:53;23.30;99.90
12013;DHT22;6065;48.138;16.402;2023-08-20T02:51:20;23.30;99.90
12013;DHT22;6065;48.138;16.402;2023-08-20T02:53:47;23.20;99.90
12013;DHT22;6065;48.138;16.402;2023-08-20T02:56:15;23.20;99.90
12013;DHT22;6065;48.138;16.402;2023-08-20T02:58:42;23.20;99.90
12013;DHT22;6065;48.138;16.402;2023-08-20T03:01:17;23.20;99.90
12013;DHT22;6065;48.138;16.402;2023-08-20T03:03:43;23.20;99.90
12013;DHT22;6065;48.138;16.402;2023-08-20T03:06:10;23.20;99.90
12013;DHT22;6065;48.138;16.402;2023-08-20T03:08:37;23.20;99.90
12013;DHT22;6065;48.138;16.402;2023-08-20T03:11:04;23.10;99.90
12013;DHT22;6065;48.138;16.402;2023-08-20T03:13:32;23.20;99.90
12013;DHT22;6065;48.138;16.402;2023-08-20T03:15:59;23.10;99.90
12013;DHT22;6065;48.138;16.402;2023-08-20T03:18:26;23.00;99.90
12013;DHT22;6065;48.138;16.402;2023-08-20T03:20:55;23.00;99.90
12013;DHT22;6065;48.138;16.402;2023-08-20T03:23:22;23.00;99.90
12013;DHT22;6065;48.138;16.402;2023-08-20T03:25:48;23.00;99.90
12013;DHT22;6065;48.138;16.402;2023-08-20T03:28:15;23.00;99.90
12013;DHT22;6065;48.138;16.402;2023-08-20T03:30:43;22.90;99.90
12013;DHT22;6065;48.138;16.402;2023-08-20T03:33:10;22.90;99.90
12013;DHT22;6065;48.138;16.402;2023-08-20T03:35:37;22.90;99.90
12013;DHT22;6065;48.138;16.402;2023-08-20T03:38:05;22.90;99.90
12013;DHT22;6065;48.138;16.402;2023-08-20T03:40:31;22.80;99.90
12013;DHT22;6065;48.138;16.402;2023-08-20T03:42:58;22.80;99.90
12013;DHT22;6065;48.138;16.402;2023-08-20T03:45:25;22.80;99.90
12013;DHT22;6065;48.138;16.402;2023-08-20T03:47:53;22.80;99.90
12013;DHT22;6065;48.138;16.402;2023-08-20T03:50:20;22.80;99.90
12013;DHT22;6065;48.138;16.402;2023-08-20T03:52:47;22.70;99.90
12013;DHT22;6065;48.138;16.402;2023-08-20T03:55:13;22.70;99.90
12013;DHT22;6065;48.138;16.402;2023-08-20T03:57:40;22.70;99.90
12013;DHT22;6065;48.138;16.402;2023-08-20T04:00:07;22.70;99.90
12013;DHT22;6065;48.138;16.402;2023-08-20T04:02:35;22.70;99.90
12013;DHT22;6065;48.138;16.402;2023-08-20T04:05:04;22.70;99.90
12013;DHT22;6065;48.138;16.402;2023-08-20T04:07:30;22.70;99.90
12013;DHT22;6065;48.138;16.402;2023-08-20T04:09:57;22.70;99.90
12013;DHT22;6065;48.138;16.402;2023-08-20T04:12:24;22.70;99.90
12013;DHT22;6065;48.138;16.402;2023-08-20T04:14:50;22.60;99.90
12013;DHT22;6065;48.138;16.402;2023-08-20T04:17:17;22.60;99.90
12013;DHT22;6065;48.138;16.402;2023-08-20T04:19:44;22.60;99.90
12013;DHT22;6065;48.138;16.402;2023-08-20T04:22:12;22.60;99.90
12013;DHT22;6065;48.138;16.402;2023-08-20T04:24:39;22.60;99.90
12013;DHT22;6065;48.138;16.402;2023-08-20T04:27:06;22.60;99.90
12013;DHT22;6065;48.138;16.402;2023-08-20T04:29:33;22.60;99.90
12013;DHT22;6065;48.138;16.402;2023-08-20T04:31:59;22.60;99.90
12013;DHT22;6065;48.138;16.402;2023-08-20T04:34:27;22.60;99.90
12013;DHT22;6065;48.138;16.402;2023-08-20T04:36:53;22.60;99.90
12013;DHT22;6065;48.138;16.402;2023-08-20T04:39:21;22.60;99.90
12013;DHT22;6065;48.138;16.402;2023-08-20T04:41:48;22.60;99.90
12013;DHT22;6065;48.138;16.402;2023-08-20T04:44:15;22.60;99.90
12013;DHT22;6065;48.138;16.402;2023-08-20T04:46:42;22.70;99.90
12013;DHT22;6065;48.138;16.402;2023-08-20T04:49:08;22.70;99.90
12013;DHT22;6065;48.138;16.402;2023-08-20T04:51:35;22.70;99.90
12013;DHT22;6065;48.138;16.402;2023-08-20T04:54:02;22.70;99.90
12013;DHT22;6065;48.138;16.402;2023-08-20T04:56:30;22.70;99.90
12013;DHT22;6065;48.138;16.402;2023-08-20T04:58:57;22.70;99.90
12013;DHT22;6065;48.138;16.402;2023-08-20T05:01:24;22.70;99.90
12013;DHT22;6065;48.138;16.402;2023-08-20T05:03:50;22.70;99.90
12013;DHT22;6065;48.138;16.402;2023-08-20T05:06:17;22.70;99.90
12013;DHT22;6065;48.138;16.402;2023-08-20T05:08:44;22.80;99.90
12013;DHT22;6065;48.138;16.402;2023-08-20T05:11:10;22.80;99.90
12013;DHT22;6065;48.138;16.402;2023-08-20T05:13:38;22.70;99.90
12013;DHT22;6065;48.138;16.402;2023-08-20T05:16:05;22.70;99.90
12013;DHT22;6065;48.138;16.402;2023-08-20T05:18:32;22.60;99.90
12013;DHT22;6065;48.138;16.402;2023-08-20T05:20:58;22.60;99.90
12013;DHT22;6065;48.138;16.402;2023-08-20T05:23:25;22.50;99.90
12013;DHT22;6065;48.138;16.402;2023-08-20T05:25:52;22.70;99.90
12013;DHT22;6065;48.138;16.402;2023-08-20T05:28:18;22.70;99.90
12013;DHT22;6065;48.138;16.402;2023-08-20T05:30:53;22.80;99.90
12013;DHT22;6065;48.138;16.402;2023-08-20T05:33:20;22.80;99.90
12013;DHT22;6065;48.138;16.402;2023-08-20T05:35:47;22.80;99.90
12013;DHT22;6065;48.138;16.402;2023-08-20T05:38:13;22.90;99.90
12013;DHT22;6065;48.138;16.402;2023-08-20T05:40:40;23.00;99.90
12013;DHT22;6065;48.138;16.402;2023-08-20T05:43:07;23.00;99.90
12013;DHT22;6065;48.138;16.402;2023-08-20T05:45:34;23.10;99.90
12013;DHT22;6065;48.138;16.402;2023-08-20T05:48:02;23.10;99.90
12013;DHT22;6065;48.138;16.402;2023-08-20T05:50:29;23.10;99.90
12013;DHT22;6065;48.138;16.402;2023-08-20T05:52:56;23.20;99.90
12013;DHT22;6065;48.138;16.402;2023-08-20T05:55:23;23.20;99.90
12013;DHT22;6065;48.138;16.402;2023-08-20T05:57:49;23.30;99.90
12013;DHT22;6065;48.138;16.402;2023-08-20T06:00:16;23.30;99.90
12013;DHT22;6065;48.138;16.402;2023-08-20T06:02:43;23.40;99.90
12013;DHT22;6065;48.138;16.402;2023-08-20T06:05:11;23.40;99.90
12013;DHT22;6065;48.138;16.402;2023-08-20T06:07:38;23.50;99.90
12013;DHT22;6065;48.138;16.402;2023-08-20T06:10:06;23.50;99.90
12013;DHT22;6065;48.138;16.402;2023-08-20T06:12:32;23.50;99.90
12013;DHT22;6065;48.138;16.402;2023-08-20T06:14:59;23.60;99.90
12013;DHT22;6065;48.138;16.402;2023-08-20T06:17:26;23.60;99.90
12013;DHT22;6065;48.138;16.402;2023-08-20T06:19:53;23.70;99.90
12013;DHT22;6065;48.138;16.402;2023-08-20T06:22:21;23.70;99.90
12013;DHT22;6065;48.138;16.402;2023-08-20T06:24:48;23.80;99.90
12013;DHT22;6065;48.138;16.402;2023-08-20T06:27:14;23.80;99.90
12013;DHT22;6065;48.138;16.402;2023-08-20T06:29:41;23.80;99.90
12013;DHT22;6065;48.138;16.402;2023-08-20T06:32:08;23.90;99.90
12013;DHT22;6065;48.138;16.402;2023-08-20T06:34:35;23.90;99.90
12013;DHT22;6065;48.138;16.402;2023-08-20T06:37:01;24.00;99.90
12013;DHT22;6065;48.138;16.402;2023-08-20T06:39:29;24.00;99.90
12013;DHT22;6065;48.138;16.402;2023-08-20T06:41:56;24.10;99.90
12013;DHT22;6065;48.138;16.402;2023-08-20T06:44:23;24.10;99.90
12013;DHT22;6065;48.138;16.402;2023-08-20T06:46:50;24.10;99.90
12013;DHT22;6065;48.138;16.402;2023-08-20T06:49:17;24.20;99.90
12013;DHT22;6065;48.138;16.402;2023-08-20T06:51:43;24.20;99.90
12013;DHT22;6065;48.138;16.402;2023-08-20T06:54:10;24.30;99.90
12013;DHT22;6065;48.138;16.402;2023-08-20T06:56:38;24.40;99.90
12013;DHT22;6065;48.138;16.402;2023-08-20T06:59:05;24.40;99.90
12013;DHT22;6065;48.138;16.402;2023-08-20T07:01:32;24.50;99.90
12013;DHT22;6065;48.138;16.402;2023-08-20T07:03:58;24.50;99.90
12013;DHT22;6065;48.138;16.402;2023-08-20T07:06:25;24.50;99.90
12013;DHT22;6065;48.138;16.402;2023-08-20T07:08:52;24.60;99.90
12013;DHT22;6065;48.138;16.402;2023-08-20T07:11:18;24.70;99.90
12013;DHT22;6065;48.138;16.402;2023-08-20T07:13:46;24.80;99.90
12013;DHT22;6065;48.138;16.402;2023-08-20T07:16:13;24.90;99.90
12013;DHT22;6065;48.138;16.402;2023-08-20T07:18:40;25.00;99.90
12013;DHT22;6065;48.138;16.402;2023-08-20T07:21:06;25.00;99.90
12013;DHT22;6065;48.138;16.402;2023-08-20T07:23:34;25.10;99.90
12013;DHT22;6065;48.138;16.402;2023-08-20T07:26:04;25.20;99.90
12013;DHT22;6065;48.138;16.402;2023-08-20T07:28:31;25.20;99.90
12013;DHT22;6065;48.138;16.402;2023-08-20T07:31:13;25.30;99.90
12013;DHT22;6065;48.138;16.402;2023-08-20T07:33:39;25.30;99.90
12013;DHT22;6065;48.138;16.402;2023-08-20T07:36:06;25.30;99.90
12013;DHT22;6065;48.138;16.402;2023-08-20T07:38:33;25.40;99.90
12013;DHT22;6065;48.138;16.402;2023-08-20T07:40:59;25.50;99.90
12013;DHT22;6065;48.138;16.402;2023-08-20T07:43:26;25.50;99.90
12013;DHT22;6065;48.138;16.402;2023-08-20T07:45:53;25.50;99.90
12013;DHT22;6065;48.138;16.402;2023-08-20T07:48:21;25.50;99.90
12013;DHT22;6065;48.138;16.402;2023-08-20T07:50:48;25.70;99.90
12013;DHT22;6065;48.138;16.402;2023-08-20T07:53:14;25.70;99.90
12013;DHT22;6065;48.138;16.402;2023-08-20T07:55:41;25.80;99.90
12013;DHT22;6065;48.138;16.402;2023-08-20T07:58:08;25.80;99.90
12013;DHT22;6065;48.138;16.402;2023-08-20T08:00:34;25.90;99.90
12013;DHT22;6065;48.138;16.402;2023-08-20T08:03:01;26.00;99.90
12013;DHT22;6065;48.138;16.402;2023-08-20T08:05:29;26.00;99.90
12013;DHT22;6065;48.138;16.402;2023-08-20T08:07:56;26.10;99.90
12013;DHT22;6065;48.138;16.402;2023-08-20T08:10:23;26.20;99.90
12013;DHT22;6065;48.138;16.402;2023-08-20T08:12:49;26.30;99.90
12013;DHT22;6065;48.138;16.402;2023-08-20T08:15:16;26.40;99.90
12013;DHT22;6065;48.138;16.402;2023-08-20T08:17:43;26.50;99.90
12013;DHT22;6065;48.138;16.402;2023-08-20T08:20:10;26.50;99.90
12013;DHT22;6065;48.138;16.402;2023-08-20T08:22:38;26.60;99.90
12013;DHT22;6065;48.138;16.402;2023-08-20T08:25:05;26.60;99.90
12013;DHT22;6065;48.138;16.402;2023-08-20T08:27:32;26.70;99.90
12013;DHT22;6065;48.138;16.402;2023-08-20T08:29:58;26.80;99.90
12013;DHT22;6065;48.138;16.402;2023-08-20T08:32:25;26.80;99.90
12013;DHT22;6065;48.138;16.402;2023-08-20T08:34:52;26.90;99.90
12013;DHT22;6065;48.138;16.402;2023-08-20T08:37:18;27.00;99.90
12013;DHT22;6065;48.138;16.402;2023-08-20T08:39:46;27.10;99.90
12013;DHT22;6065;48.138;16.402;2023-08-20T08:42:13;27.20;99.90
12013;DHT22;6065;48.138;16.402;2023-08-20T08:44:40;27.30;99.90
12013;DHT22;6065;48.138;16.402;2023-08-20T08:47:07;27.40;99.90
12013;DHT22;6065;48.138;16.402;2023-08-20T08:49:34;27.50;99.90
12013;DHT22;6065;48.138;16.402;2023-08-20T08:52:01;27.50;99.90
12013;DHT22;6065;48.138;16.402;2023-08-20T08:54:29;27.50;99.90
12013;DHT22;6065;48.138;16.402;2023-08-20T08:56:58;27.60;99.90
12013;DHT22;6065;48.138;16.402;2023-08-20T08:59:24;27.70;99.90
12013;DHT22;6065;48.138;16.402;2023-08-20T09:01:51;27.70;99.90
12013;DHT22;6065;48.138;16.402;2023-08-20T09:04:18;27.80;99.90
12013;DHT22;6065;48.138;16.402;2023-08-20T09:06:45;27.90;99.90
12013;DHT22;6065;48.138;16.402;2023-08-20T09:09:12;27.90;99.90
12013;DHT22;6065;48.138;16.402;2023-08-20T09:11:39;28.10;99.90
12013;DHT22;6065;48.138;16.402;2023-08-20T09:14:07;28.20;99.90
12013;DHT22;6065;48.138;16.402;2023-08-20T09:16:34;28.20;99.90
12013;DHT22;6065;48.138;16.402;2023-08-20T09:19:01;28.30;99.90
12013;DHT22;6065;48.138;16.402;2023-08-20T09:21:28;28.40;99.90
12013;DHT22;6065;48.138;16.402;2023-08-20T09:23:55;28.50;99.90
12013;DHT22;6065;48.138;16.402;2023-08-20T09:26:22;28.50;99.90
12013;DHT22;6065;48.138;16.402;2023-08-20T09:28:49;28.50;99.90
12013;DHT22;6065;48.138;16.402;2023-08-20T09:31:17;28.50;99.90
12013;DHT22;6065;48.138;16.402;2023-08-20T09:33:49;28.70;99.90
12013;DHT22;6065;48.138;16.402;2023-08-20T09:36:17;28.90;99.90
12013;DHT22;6065;48.138;16.402;2023-08-20T09:38:43;29.00;99.90
12013;DHT22;6065;48.138;16.402;2023-08-20T09:41:11;29.00;99.90
12013;DHT22;6065;48.138;16.402;2023-08-20T09:43:38;29.10;99.90
12013;DHT22;6065;48.138;16.402;2023-08-20T09:46:05;29.20;99.90
12013;DHT22;6065;48.138;16.402;2023-08-20T09:48:34;29.30;99.90
12013;DHT22;6065;48.138;16.402;2023-08-20T09:51:03;29.40;99.90
12013;DHT22;6065;48.138;16.402;2023-08-20T09:53:32;29.40;99.90
12013;DHT22;6065;48.138;16.402;2023-08-20T09:56:02;29.40;99.90
12013;DHT22;6065;48.138;16.402;2023-08-20T09:58:30;29.40;99.90
12013;DHT22;6065;48.138;16.402;2023-08-20T10:00:56;29.40;99.90
12013;DHT22;6065;48.138;16.402;2023-08-20T10:03:23;29.40;99.90
12013;DHT22;6065;48.138;16.402;2023-08-20T10:05:51;29.50;99.90
12013;DHT22;6065;48.138;16.402;2023-08-20T10:08:19;29.50;99.90
12013;DHT22;6065;48.138;16.402;2023-08-20T10:10:46;29.60;99.90
12013;DHT22;6065;48.138;16.402;2023-08-20T10:13:13;29.70;99.90
12013;DHT22;6065;48.138;16.402;2023-08-20T10:15:40;29.70;99.90
12013;DHT22;6065;48.138;16.402;2023-08-20T10:18:07;29.70;99.90
12013;DHT22;6065;48.138;16.402;2023-08-20T10:20:34;29.80;99.90
12013;DHT22;6065;48.138;16.402;2023-08-20T10:23:02;29.80;99.90
12013;DHT22;6065;48.138;16.402;2023-08-20T10:25:29;29.80;99.90
12013;DHT22;6065;48.138;16.402;2023-08-20T10:28:10;29.90;99.90
12013;DHT22;6065;48.138;16.402;2023-08-20T10:30:37;29.90;99.90
12013;DHT22;6065;48.138;16.402;2023-08-20T10:33:04;30.10;99.90
12013;DHT22;6065;48.138;16.402;2023-08-20T10:35:48;30.20;99.90
12013;DHT22;6065;48.138;16.402;2023-08-20T10:38:17;30.30;99.90
12013;DHT22;6065;48.138;16.402;2023-08-20T10:40:47;30.40;99.90
12013;DHT22;6065;48.138;16.402;2023-08-20T10:43:23;30.50;99.70
12013;DHT22;6065;48.138;16.402;2023-08-20T10:46:01;30.50;99.90
12013;DHT22;6065;48.138;16.402;2023-08-20T10:48:28;30.50;99.80
12013;DHT22;6065;48.138;16.402;2023-08-20T10:50:55;30.50;99.90
12013;DHT22;6065;48.138;16.402;2023-08-20T10:53:23;30.50;99.80
12013;DHT22;6065;48.138;16.402;2023-08-20T10:55:50;30.60;99.90
12013;DHT22;6065;48.138;16.402;2023-08-20T10:58:18;30.70;99.90
12013;DHT22;6065;48.138;16.402;2023-08-20T11:03:32;31.00;99.60
12013;DHT22;6065;48.138;16.402;2023-08-20T11:05:59;30.90;97.60
12013;DHT22;6065;48.138;16.402;2023-08-20T11:08:27;31.00;97.50
12013;DHT22;6065;48.138;16.402;2023-08-20T11:10:54;31.00;97.50
12013;DHT22;6065;48.138;16.402;2023-08-20T11:13:20;31.10;96.80
12013;DHT22;6065;48.138;16.402;2023-08-20T11:15:47;31.20;96.90
12013;DHT22;6065;48.138;16.402;2023-08-20T11:18:14;31.30;96.00
12013;DHT22;6065;48.138;16.402;2023-08-20T11:20:41;31.30;95.30
12013;DHT22;6065;48.138;16.402;2023-08-20T11:23:08;31.40;96.30
12013;DHT22;6065;48.138;16.402;2023-08-20T11:25:41;31.50;95.60
12013;DHT22;6065;48.138;16.402;2023-08-20T11:28:08;31.60;95.40
12013;DHT22;6065;48.138;16.402;2023-08-20T11:30:35;31.70;95.60
12013;DHT22;6065;48.138;16.402;2023-08-20T11:33:02;31.80;95.10
12013;DHT22;6065;48.138;16.402;2023-08-20T11:35:28;31.80;95.20
12013;DHT22;6065;48.138;16.402;2023-08-20T11:37:55;31.90;92.90
12013;DHT22;6065;48.138;16.402;2023-08-20T11:40:22;32.10;92.30
12013;DHT22;6065;48.138;16.402;2023-08-20T11:42:50;32.10;92.20
12013;DHT22;6065;48.138;16.402;2023-08-20T11:45:17;32.20;92.50
12013;DHT22;6065;48.138;16.402;2023-08-20T11:47:43;32.30;92.20
12013;DHT22;6065;48.138;16.402;2023-08-20T11:50:10;32.40;92.00
12013;DHT22;6065;48.138;16.402;2023-08-20T11:52:37;32.40;93.40
12013;DHT22;6065;48.138;16.402;2023-08-20T11:55:05;32.50;93.30
12013;DHT22;6065;48.138;16.402;2023-08-20T11:57:32;32.60;92.80
12013;DHT22;6065;48.138;16.402;2023-08-20T12:00:01;32.60;90.70
12013;DHT22;6065;48.138;16.402;2023-08-20T12:02:30;32.60;90.80
12013;DHT22;6065;48.138;16.402;2023-08-20T12:04:57;32.70;90.30
12013;DHT22;6065;48.138;16.402;2023-08-20T12:07:25;32.80;89.20
12013;DHT22;6065;48.138;16.402;2023-08-20T12:09:51;32.80;89.20
12013;DHT22;6065;48.138;16.402;2023-08-20T12:12:19;32.90;89.50
12013;DHT22;6065;48.138;16.402;2023-08-20T12:14:46;32.90;90.00
12013;DHT22;6065;48.138;16.402;2023-08-20T12:17:18;32.90;89.10
12013;DHT22;6065;48.138;16.402;2023-08-20T12:19:46;33.00;89.90
12013;DHT22;6065;48.138;16.402;2023-08-20T12:22:13;33.00;88.60
12013;DHT22;6065;48.138;16.402;2023-08-20T12:24:39;33.00;87.80
12013;DHT22;6065;48.138;16.402;2023-08-20T12:27:07;33.10;87.90
12013;DHT22;6065;48.138;16.402;2023-08-20T12:29:33;33.20;88.80
12013;DHT22;6065;48.138;16.402;2023-08-20T12:32:00;33.20;87.70
12013;DHT22;6065;48.138;16.402;2023-08-20T12:34:31;33.30;89.40
12013;DHT22;6065;48.138;16.402;2023-08-20T12:36:58;33.40;89.20
12013;DHT22;6065;48.138;16.402;2023-08-20T12:39:25;33.40;86.70
12013;DHT22;6065;48.138;16.402;2023-08-20T12:41:52;33.40;87.30
12013;DHT22;6065;48.138;16.402;2023-08-20T12:44:18;33.40;86.10
12013;DHT22;6065;48.138;16.402;2023-08-20T12:46:48;33.50;84.70
12013;DHT22;6065;48.138;16.402;2023-08-20T12:49:17;33.50;84.00
12013;DHT22;6065;48.138;16.402;2023-08-20T12:51:45;33.60;84.40
12013;DHT22;6065;48.138;16.402;2023-08-20T12:54:12;33.70;85.80
12013;DHT22;6065;48.138;16.402;2023-08-20T12:56:38;33.70;84.80
12013;DHT22;6065;48.138;16.402;2023-08-20T12:59:05;33.70;83.50
12013;DHT22;6065;48.138;16.402;2023-08-20T13:01:32;33.70;83.70
12013;DHT22;6065;48.138;16.402;2023-08-20T13:03:58;33.70;83.90
12013;DHT22;6065;48.138;16.402;2023-08-20T13:06:26;33.80;83.60
12013;DHT22;6065;48.138;16.402;2023-08-20T13:08:55;33.80;83.10
12013;DHT22;6065;48.138;16.402;2023-08-20T13:11:21;33.80;83.00
12013;DHT22;6065;48.138;16.402;2023-08-20T13:13:51;33.80;83.30
12013;DHT22;6065;48.138;16.402;2023-08-20T13:16:18;33.80;82.80
12013;DHT22;6065;48.138;16.402;2023-08-20T13:18:45;33.80;82.80
12013;DHT22;6065;48.138;16.402;2023-08-20T13:21:12;33.80;83.40
12013;DHT22;6065;48.138;16.402;2023-08-20T13:23:39;33.90;81.30
12013;DHT22;6065;48.138;16.402;2023-08-20T13:26:07;33.90;81.70
12013;DHT22;6065;48.138;16.402;2023-08-20T13:28:34;34.00;80.30
12013;DHT22;6065;48.138;16.402;2023-08-20T13:31:01;34.00;80.30
12013;DHT22;6065;48.138;16.402;2023-08-20T13:33:28;34.00;80.10
12013;DHT22;6065;48.138;16.402;2023-08-20T13:35:54;34.00;80.20
12013;DHT22;6065;48.138;16.402;2023-08-20T13:38:21;34.00;80.40
12013;DHT22;6065;48.138;16.402;2023-08-20T13:40:48;34.10;80.60
12013;DHT22;6065;48.138;16.402;2023-08-20T13:43:16;34.20;81.00
12013;DHT22;6065;48.138;16.402;2023-08-20T13:45:44;34.20;81.40
12013;DHT22;6065;48.138;16.402;2023-08-20T13:48:10;34.20;80.20
12013;DHT22;6065;48.138;16.402;2023-08-20T13:50:37;34.20;79.30
12013;DHT22;6065;48.138;16.402;2023-08-20T13:53:04;34.20;79.80
12013;DHT22;6065;48.138;16.402;2023-08-20T13:55:31;34.20;79.60
12013;DHT22;6065;48.138;16.402;2023-08-20T13:57:58;34.30;79.80
12013;DHT22;6065;48.138;16.402;2023-08-20T14:00:26;34.20;80.00
12013;DHT22;6065;48.138;16.402;2023-08-20T14:02:52;34.30;80.00
12013;DHT22;6065;48.138;16.402;2023-08-20T14:05:19;34.30;80.30
12013;DHT22;6065;48.138;16.402;2023-08-20T14:07:46;34.30;80.10
12013;DHT22;6065;48.138;16.402;2023-08-20T14:10:12;34.40;80.30
12013;DHT22;6065;48.138;16.402;2023-08-20T14:12:39;34.40;79.80
12013;DHT22;6065;48.138;16.402;2023-08-20T14:15:06;34.40;80.10
12013;DHT22;6065;48.138;16.402;2023-08-20T14:17:35;34.40;80.60
12013;DHT22;6065;48.138;16.402;2023-08-20T14:20:01;34.40;80.90
12013;DHT22;6065;48.138;16.402;2023-08-20T14:22:29;34.40;80.90
12013;DHT22;6065;48.138;16.402;2023-08-20T14:24:56;34.40;81.60
12013;DHT22;6065;48.138;16.402;2023-08-20T14:27:22;34.40;81.00
12013;DHT22;6065;48.138;16.402;2023-08-20T14:29:49;34.40;81.20
12013;DHT22;6065;48.138;16.402;2023-08-20T14:32:16;34.40;81.50
12013;DHT22;6065;48.138;16.402;2023-08-20T14:34:44;34.40;81.60
12013;DHT22;6065;48.138;16.402;2023-08-20T14:37:10;34.40;82.80
12013;DHT22;6065;48.138;16.402;2023-08-20T14:39:38;34.40;83.10
12013;DHT22;6065;48.138;16.402;2023-08-20T14:42:05;34.40;82.80
12013;DHT22;6065;48.138;16.402;2023-08-20T14:44:32;34.40;82.10
12013;DHT22;6065;48.138;16.402;2023-08-20T14:46:58;34.40;82.00
12013;DHT22;6065;48.138;16.402;2023-08-20T14:49:25;34.40;80.90
12013;DHT22;6065;48.138;16.402;2023-08-20T14:51:55;34.40;80.90
12013;DHT22;6065;48.138;16.402;2023-08-20T14:54:22;34.40;81.00
12013;DHT22;6065;48.138;16.402;2023-08-20T14:56:48;34.40;80.40
12013;DHT22;6065;48.138;16.402;2023-08-20T14:59:15;34.40;80.20
12013;DHT22;6065;48.138;16.402;2023-08-20T15:01:42;34.40;78.70
12013;DHT22;6065;48.138;16.402;2023-08-20T15:04:08;34.50;79.50
12013;DHT22;6065;48.138;16.402;2023-08-20T15:06:35;34.40;79.00
12013;DHT22;6065;48.138;16.402;2023-08-20T15:09:03;34.40;77.40
12013;DHT22;6065;48.138;16.402;2023-08-20T15:11:31;34.40;76.60
12013;DHT22;6065;48.138;16.402;2023-08-20T15:13:57;34.30;74.00
12013;DHT22;6065;48.138;16.402;2023-08-20T15:16:24;34.20;72.90
12013;DHT22;6065;48.138;16.402;2023-08-20T15:18:51;34.20;73.30
12013;DHT22;6065;48.138;16.402;2023-08-20T15:21:17;34.10;73.10
12013;DHT22;6065;48.138;16.402;2023-08-20T15:23:44;34.00;73.40
12013;DHT22;6065;48.138;16.402;2023-08-20T15:26:12;34.00;73.00
12013;DHT22;6065;48.138;16.402;2023-08-20T15:28:39;33.90;73.10
12013;DHT22;6065;48.138;16.402;2023-08-20T15:31:05;33.90;73.20
12013;DHT22;6065;48.138;16.402;2023-08-20T15:33:32;33.80;73.60
12013;DHT22;6065;48.138;16.402;2023-08-20T15:35:59;33.80;73.90